Time;durP1;ratioP1;P1;durP2;ratioP2;P2;SDS_P1;SDS_P2;PMS_P1;PMS_P2;Temp;Humidity;BMP_temperature;BMP_pressure;BME280_temperature;BME280_humidity;BME280_pressure;Samples;Min_cycle;Max_cycle;Signal;HPM_P1;HPM_P2
2021/03/29 00:01:04;;;;;;;10.37;8.37;;;7.40;98.20;;;;;;6296290;28;20523;-64
2021/03/29 00:04:06;;;;;;;11.50;7.73;;;7.40;98.20;;;;;;6302451;28;20799;-64
2021/03/29 00:07:09;;;;;;;11.73;7.97;;;7.40;98.50;;;;;;6302445;28;20457;-64
2021/03/29 00:10:13;;;;;;;9.00;7.00;;;7.40;98.10;;;;;;6302404;28;20466;-64
2021/03/29 00:13:15;;;;;;;8.77;7.30;;;7.30;98.20;;;;;;6302067;28;20481;-64
2021/03/29 00:16:20;;;;;;;8.77;7.17;;;7.30;98.30;;;;;;6302047;28;20511;-64
2021/03/29 00:19:23;;;;;;;8.20;6.67;;;7.30;98.30;;;;;;6297469;28;20461;-64
2021/03/29 00:22:26;;;;;;;7.00;6.30;;;7.30;98.50;;;;;;6301695;28;20492;-64
2021/03/29 00:25:30;;;;;;;8.17;7.00;;;7.20;98.50;;;;;;6301417;28;20488;-64
2021/03/29 00:28:33;;;;;;;9.60;7.30;;;7.20;98.60;;;;;;6302035;28;20989;-64
2021/03/29 00:31:37;;;;;;;10.60;6.93;;;7.10;98.60;;;;;;6301977;28;20478;-64
2021/03/29 00:34:40;;;;;;;8.53;6.53;;;7.20;98.60;;;;;;6301983;28;20496;-64
2021/03/29 00:37:47;;;;;;;7.87;7.07;;;7.20;98.70;;;;;;6301487;28;20505;-64
2021/03/29 00:40:52;;;;;;;8.13;6.43;;;7.30;98.70;;;;;;6301727;28;20492;-64
2021/03/29 00:43:55;;;;;;;8.47;7.10;;;7.20;98.80;;;;;;6301460;28;20481;-64
2021/03/29 00:46:59;;;;;;;6.90;6.20;;;7.10;99.00;;;;;;6301243;28;20462;-64
2021/03/29 00:50:07;;;;;;;10.20;6.63;;;7.20;99.10;;;;;;6293971;28;20471;-64
2021/03/29 00:53:10;;;;;;;7.80;7.00;;;7.20;99.10;;;;;;6276366;28;20482;-64
2021/03/29 00:56:13;;;;;;;6.67;5.73;;;7.30;99.10;;;;;;6276555;28;20478;-64
2021/03/29 00:59:18;;;;;;;8.03;7.03;;;7.30;99.20;;;;;;6276173;28;20470;-64
2021/03/29 01:02:22;;;;;;;8.80;6.60;;;7.30;99.60;;;;;;6277914;28;20481;-64
2021/03/29 01:05:24;;;;;;;8.23;7.23;;;7.30;99.20;;;;;;6280333;28;21023;-64
2021/03/29 01:08:28;;;;;;;7.97;7.03;;;7.30;99.20;;;;;;6276662;28;20489;-64
2021/03/29 01:11:34;;;;;;;8.77;6.40;;;7.30;99.30;;;;;;6275946;28;20480;-64
2021/03/29 01:14:39;;;;;;;9.50;7.43;;;7.20;99.30;;;;;;6275875;28;20466;-64
2021/03/29 01:17:45;;;;;;;11.07;7.23;;;7.30;99.30;;;;;;6275856;28;20497;-65
2021/03/29 01:21:03;;;;;;;7.70;6.50;;;7.30;99.30;;;;;;6276007;28;20489;-63
2021/03/29 01:24:11;;;;;;;7.57;6.87;;;7.40;99.30;;;;;;6266951;28;20443;-66
2021/03/29 01:27:17;;;;;;;7.70;6.90;;;7.30;99.20;;;;;;6275428;28;20474;-63
2021/03/29 01:30:21;;;;;;;7.40;6.70;;;7.30;99.30;;;;;;6275714;28;20939;-63
2021/03/29 01:33:24;;;;;;;8.37;7.13;;;7.30;99.40;;;;;;6275522;28;20462;-65
2021/03/29 01:36:30;;;;;;;7.13;6.30;;;7.30;99.30;;;;;;6274614;28;20458;-63
2021/03/29 01:39:33;;;;;;;7.30;5.90;;;7.40;99.20;;;;;;6275335;28;20475;-63
2021/03/29 01:42:37;;;;;;;7.50;6.03;;;7.40;99.20;;;;;;6274976;28;20959;-64
2021/03/29 01:45:41;;;;;;;8.50;6.40;;;7.30;99.20;;;;;;6275141;28;20467;-65
2021/03/29 01:48:45;;;;;;;7.37;6.63;;;7.40;99.30;;;;;;6275023;28;20474;-63
2021/03/29 01:51:48;;;;;;;8.67;7.80;;;7.40;99.40;;;;;;6275097;28;20952;-64
2021/03/29 01:54:51;;;;;;;9.47;6.50;;;7.40;99.40;;;;;;6275264;28;20497;-63
2021/03/29 01:57:54;;;;;;;7.77;7.07;;;7.40;99.40;;;;;;6275314;28;20467;-64
2021/03/29 02:00:59;;;;;;;7.47;6.77;;;7.40;99.20;;;;;;6274906;28;20466;-64
2021/03/29 02:04:02;;;;;;;10.47;7.97;;;7.40;99.60;;;;;;6275027;28;20458;-63
2021/03/29 02:07:06;;;;;;;10.17;7.40;;;7.40;99.30;;;;;;6274895;28;20942;-64
2021/03/29 02:10:10;;;;;;;8.20;6.87;;;7.40;99.40;;;;;;6274668;28;20807;-64
2021/03/29 02:13:15;;;;;;;8.33;7.63;;;7.40;99.40;;;;;;6274840;28;20479;-64
2021/03/29 02:16:18;;;;;;;12.33;8.13;;;7.40;99.40;;;;;;6274540;28;20470;-64
2021/03/29 02:19:22;;;;;;;10.87;7.50;;;7.40;99.40;;;;;;6274419;28;20982;-64
2021/03/29 02:22:25;;;;;;;7.90;7.10;;;7.40;99.40;;;;;;6274497;28;20481;-64
2021/03/29 02:25:29;;;;;;;8.80;7.90;;;7.40;99.40;;;;;;6274607;28;20474;-63
2021/03/29 02:28:35;;;;;;;10.10;7.30;;;7.30;99.60;;;;;;6269826;28;21093;-64
2021/03/29 02:31:38;;;;;;;7.77;6.23;;;7.20;99.50;;;;;;6274270;28;20474;-64
2021/03/29 02:34:40;;;;;;;8.53;7.37;;;7.30;99.50;;;;;;6274677;28;20481;-64
2021/03/29 02:37:47;;;;;;;9.03;7.70;;;7.30;99.60;;;;;;6274821;28;20568;-64
2021/03/29 02:40:51;;;;;;;9.80;8.70;;;7.20;99.50;;;;;;6274434;28;20470;-64
2021/03/29 02:43:55;;;;;;;9.43;7.80;;;7.20;99.80;;;;;;6274304;28;20488;-64
2021/03/29 02:46:57;;;;;;;7.93;6.60;;;7.10;99.90;;;;;;6274555;28;20462;-64
2021/03/29 02:50:00;;;;;;;9.67;7.90;;;7.00;99.90;;;;;;6279050;28;20478;-64
2021/03/29 02:53:07;;;;;;;8.07;7.07;;;7.00;99.90;;;;;;6279982;28;20808;-64
2021/03/29 02:56:14;;;;;;;8.43;7.63;;;7.00;99.90;;;;;;6279387;28;20470;-64
2021/03/29 02:59:22;;;;;;;10.67;7.27;;;7.10;99.90;;;;;;6279071;28;20470;-64
2021/03/29 03:02:25;;;;;;;7.83;7.13;;;7.10;99.90;;;;;;6278927;28;20967;-64
2021/03/29 03:05:29;;;;;;;7.63;6.93;;;7.10;99.90;;;;;;6278800;28;20806;-64
2021/03/29 03:08:34;;;;;;;7.73;7.03;;;7.10;99.90;;;;;;6279020;28;20470;-65
2021/03/29 03:11:37;;;;;;;7.67;6.70;;;7.10;99.90;;;;;;6278580;28;20470;-64
2021/03/29 03:14:40;;;;;;;7.60;6.97;;;7.10;99.90;;;;;;6278706;28;20515;-64
2021/03/29 03:17:43;;;;;;;10.87;6.90;;;7.00;99.90;;;;;;6278859;28;20539;-64
2021/03/29 03:20:45;;;;;;;7.90;6.87;;;7.00;99.90;;;;;;6278532;28;20474;-64
2021/03/29 03:23:56;;;;;;;10.47;7.40;;;7.10;99.90;;;;;;6279721;28;20847;-64
2021/03/29 03:27:04;;;;;;;9.03;7.20;;;7.10;99.90;;;;;;6278415;28;20955;-63
2021/03/29 03:30:09;;;;;;;7.07;6.47;;;7.10;99.90;;;;;;6273760;28;20873;-63
2021/03/29 03:33:14;;;;;;;11.03;8.20;;;7.10;99.90;;;;;;6278489;28;20462;-64
2021/03/29 03:36:18;;;;;;;9.60;8.60;;;7.10;99.90;;;;;;6278375;28;20477;-63
2021/03/29 03:39:21;;;;;;;10.10;8.33;;;7.00;99.90;;;;;;6278010;28;20466;-63
2021/03/29 03:42:23;;;;;;;10.07;7.60;;;7.10;99.90;;;;;;6299106;28;20465;-64
2021/03/29 03:45:31;;;;;;;11.57;8.67;;;7.10;99.90;;;;;;6303094;28;20512;-64
2021/03/29 03:48:34;;;;;;;8.87;6.70;;;7.20;99.90;;;;;;6303169;28;20496;-63
2021/03/29 03:51:37;;;;;;;7.80;6.87;;;7.20;99.90;;;;;;6303796;28;20489;-64
2021/03/29 03:54:40;;;;;;;8.40;7.10;;;7.30;99.90;;;;;;6303364;28;20469;-64
2021/03/29 03:57:44;;;;;;;6.87;6.23;;;7.20;99.90;;;;;;6302562;28;20497;-64
2021/03/29 04:00:47;;;;;;;7.77;6.87;;;7.20;99.90;;;;;;6301872;28;20969;-64
2021/03/29 04:03:49;;;;;;;8.83;6.83;;;7.20;99.90;;;;;;6302426;28;20620;-66
2021/03/29 04:06:52;;;;;;;10.80;7.13;;;7.20;99.90;;;;;;6302956;28;20527;-66
2021/03/29 04:09:57;;;;;;;9.30;8.20;;;7.30;99.90;;;;;;6302378;28;20469;-63
2021/03/29 04:12:59;;;;;;;9.00;7.80;;;7.20;99.90;;;;;;6302258;28;20477;-63
2021/03/29 04:16:05;;;;;;;9.73;7.07;;;7.30;99.90;;;;;;6302533;28;20480;-64
2021/03/29 04:19:07;;;;;;;8.73;7.17;;;7.30;99.90;;;;;;6283304;28;20930;-64
2021/03/29 04:22:10;;;;;;;7.90;7.10;;;7.40;99.90;;;;;;6277510;28;20940;-64
2021/03/29 04:25:14;;;;;;;8.97;7.80;;;7.40;99.90;;;;;;6275677;28;20477;-64
2021/03/29 04:28:17;;;;;;;9.43;7.90;;;7.40;99.90;;;;;;6274638;28;20478;-64
2021/03/29 04:31:20;;;;;;;9.17;7.77;;;7.40;99.90;;;;;;6274824;28;20482;-64
2021/03/29 04:34:22;;;;;;;13.87;8.80;;;7.40;99.90;;;;;;6274731;28;20478;-64
2021/03/29 04:37:24;;;;;;;10.63;9.10;;;7.40;99.90;;;;;;6274534;28;20478;-64
2021/03/29 04:40:27;;;;;;;10.87;8.97;;;7.50;99.90;;;;;;6275621;28;20482;-64
2021/03/29 04:43:29;;;;;;;10.90;9.80;;;7.50;99.90;;;;;;6276225;28;20477;-64
2021/03/29 04:46:32;;;;;;;17.87;10.20;;;7.40;99.90;;;;;;6275958;28;20986;-64
2021/03/29 04:49:35;;;;;;;10.50;9.40;;;7.50;99.90;;;;;;6274647;28;20478;-64
2021/03/29 04:52:38;;;;;;;12.40;8.93;;;7.40;99.90;;;;;;6274544;28;20489;-64
2021/03/29 04:55:40;;;;;;;11.50;9.80;;;7.40;99.90;;;;;;6274667;28;20474;-64
2021/03/29 04:58:44;;;;;;;10.50;8.33;;;7.40;99.90;;;;;;6274535;28;21029;-64
2021/03/29 05:01:47;;;;;;;9.80;8.70;;;7.50;99.90;;;;;;6274842;28;20474;-65
2021/03/29 05:04:49;;;;;;;10.30;8.40;;;7.50;99.90;;;;;;6276446;28;20481;-64
2021/03/29 05:07:51;;;;;;;8.80;7.43;;;7.40;99.90;;;;;;6275817;28;20470;-64
2021/03/29 05:10:53;;;;;;;11.00;8.53;;;7.40;99.90;;;;;;6275759;28;20782;-64
2021/03/29 05:13:55;;;;;;;9.17;8.27;;;7.50;99.90;;;;;;6275914;28;20487;-64
2021/03/29 05:16:59;;;;;;;11.60;7.30;;;7.50;99.90;;;;;;6276386;28;20581;-64
2021/03/29 05:20:02;;;;;;;10.60;9.00;;;7.60;99.90;;;;;;6276142;28;20612;-65
2021/03/29 05:23:04;;;;;;;9.67;8.77;;;7.70;99.90;;;;;;6276543;28;20490;-65
2021/03/29 05:26:06;;;;;;;13.50;9.80;;;7.70;99.90;;;;;;6275775;28;20489;-64
2021/03/29 05:29:08;;;;;;;9.67;8.67;;;7.70;99.90;;;;;;6275264;28;20972;-64
2021/03/29 05:32:16;;;;;;;10.40;8.77;;;7.80;99.90;;;;;;6275570;28;20470;-65
2021/03/29 05:35:19;;;;;;;11.50;9.57;;;7.80;99.90;;;;;;6275913;28;20479;-64
2021/03/29 05:38:24;;;;;;;12.13;8.83;;;7.90;99.90;;;;;;6271101;28;20486;-65
2021/03/29 05:41:27;;;;;;;11.00;9.33;;;8.10;99.90;;;;;;6275041;28;20481;-65
2021/03/29 05:44:29;;;;;;;14.93;10.57;;;8.10;99.90;;;;;;6275231;28;20470;-65
2021/03/29 05:47:32;;;;;;;11.40;8.50;;;8.20;99.90;;;;;;6275695;28;20474;-65
2021/03/29 05:50:35;;;;;;;10.80;9.70;;;8.30;99.90;;;;;;6275475;28;20480;-65
2021/03/29 05:53:37;;;;;;;13.33;9.63;;;8.40;99.60;;;;;;6274963;28;20486;-65
2021/03/29 05:56:41;;;;;;;11.00;9.43;;;8.40;99.20;;;;;;6274938;28;20796;-64
2021/03/29 05:59:43;;;;;;;8.07;7.30;;;8.50;99.00;;;;;;6274683;28;20489;-64
2021/03/29 06:02:46;;;;;;;8.47;7.53;;;8.50;98.90;;;;;;6274959;28;20477;-64
2021/03/29 06:05:50;;;;;;;9.40;7.50;;;8.50;98.90;;;;;;6274720;28;20603;-65
2021/03/29 06:08:52;;;;;;;8.43;7.30;;;8.60;99.00;;;;;;6276612;28;20466;-65
2021/03/29 06:11:55;;;;;;;10.40;7.77;;;8.60;98.70;;;;;;6296572;28;20465;-65
2021/03/29 06:15:00;;;;;;;9.80;7.97;;;8.70;98.80;;;;;;6286875;28;20450;-63
2021/03/29 06:18:15;;;;;;;8.70;7.73;;;8.90;98.80;;;;;;6286796;28;20974;-65
2021/03/29 06:21:17;;;;;;;8.17;7.43;;;9.00;98.70;;;;;;6286750;28;20470;-65
2021/03/29 06:24:19;;;;;;;7.70;6.87;;;9.10;98.20;;;;;;6285347;28;20938;-65
2021/03/29 06:27:23;;;;;;;7.87;7.07;;;9.20;98.00;;;;;;6286837;28;20484;-64
2021/03/29 06:30:27;;;;;;;11.97;8.97;;;9.30;97.50;;;;;;6285281;28;20461;-65
2021/03/29 06:33:31;;;;;;;13.30;7.93;;;9.40;97.20;;;;;;6285322;28;20556;-65
2021/03/29 06:36:35;;;;;;;13.47;7.33;;;9.50;96.70;;;;;;6284111;28;20466;-65
2021/03/29 06:39:38;;;;;;;10.37;7.67;;;9.60;96.50;;;;;;6286230;28;20480;-65
2021/03/29 06:42:41;;;;;;;12.33;7.90;;;9.70;96.00;;;;;;6299062;28;20478;-65
2021/03/29 06:45:43;;;;;;;6.13;5.63;;;9.70;95.40;;;;;;6299151;28;20480;-62
2021/03/29 06:48:46;;;;;;;11.60;7.40;;;9.90;95.20;;;;;;6291821;28;20465;-65
2021/03/29 06:51:49;;;;;;;8.20;7.20;;;10.00;94.40;;;;;;6284650;28;20480;-65
2021/03/29 06:54:51;;;;;;;8.90;6.20;;;10.10;94.20;;;;;;6284194;28;20878;-65
2021/03/29 06:58:01;;;;;;;7.07;6.37;;;10.20;94.10;;;;;;6284596;28;20484;-65
2021/03/29 07:01:03;;;;;;;7.20;6.50;;;10.40;93.60;;;;;;6286032;28;20477;-65
2021/03/29 07:04:06;;;;;;;9.00;6.67;;;10.50;93.10;;;;;;6299532;28;20461;-65
2021/03/29 07:07:09;;;;;;;9.33;7.47;;;10.60;92.90;;;;;;6299231;28;20505;-66
2021/03/29 07:10:13;;;;;;;11.33;7.27;;;10.70;92.90;;;;;;6298961;28;20889;-65
2021/03/29 07:13:18;;;;;;;15.83;8.50;;;10.90;92.30;;;;;;6290501;28;20545;-66
2021/03/29 07:16:22;;;;;;;9.30;7.63;;;11.00;91.90;;;;;;6285538;28;20472;-65
2021/03/29 07:19:25;;;;;;;8.33;6.87;;;11.10;91.70;;;;;;6288349;28;20470;-65
2021/03/29 07:22:30;;;;;;;9.50;6.60;;;11.20;91.10;;;;;;6289809;28;20465;-65
2021/03/29 07:25:35;;;;;;;8.43;6.30;;;11.20;90.80;;;;;;6286480;28;20542;-65
2021/03/29 07:28:38;;;;;;;9.83;6.73;;;11.30;90.70;;;;;;6285804;28;20466;-65
2021/03/29 07:31:42;;;;;;;6.93;6.27;;;11.40;90.80;;;;;;6287162;28;20469;-65
2021/03/29 07:34:47;;;;;;;5.90;5.27;;;11.50;90.50;;;;;;6299466;28;20526;-65
2021/03/29 07:37:57;;;;;;;9.50;6.33;;;11.60;90.00;;;;;;6302911;28;20483;-65
2021/03/29 07:41:00;;;;;;;7.60;5.97;;;11.70;89.10;;;;;;6302977;28;20469;-65
2021/03/29 07:44:14;;;;;;;11.00;6.60;;;11.70;87.60;;;;;;6303253;28;20468;-64
2021/03/29 07:47:39;;;;;;;6.80;5.77;;;11.80;86.90;;;;;;6302659;28;20966;-64
2021/03/29 07:50:49;;;;;;;7.40;6.70;;;11.70;86.70;;;;;;6302882;28;20989;-64
2021/03/29 07:53:54;;;;;;;14.17;6.70;;;11.70;86.60;;;;;;6302765;28;20489;-64
2021/03/29 07:56:58;;;;;;;12.03;6.00;;;11.90;85.80;;;;;;6302877;28;20465;-65
2021/03/29 08:00:00;;;;;;;11.07;6.27;;;12.00;85.00;;;;;;6302655;28;20627;-64
2021/03/29 08:03:57;;;;;;;11.43;6.43;;;12.00;84.20;;;;;;6302752;28;20461;-65
2021/03/29 08:07:00;;;;;;;8.83;6.00;;;12.10;83.80;;;;;;6302360;28;20959;-65
2021/03/29 08:10:04;;;;;;;7.70;5.13;;;12.20;83.00;;;;;;6302193;28;20466;-60
2021/03/29 08:13:06;;;;;;;6.13;5.30;;;12.30;80.50;;;;;;6288937;28;20473;-60
2021/03/29 08:16:10;;;;;;;5.97;5.47;;;12.20;79.90;;;;;;6289295;28;20520;-61
2021/03/29 08:19:14;;;;;;;10.20;5.77;;;12.30;79.40;;;;;;6289528;28;20462;-61
2021/03/29 08:22:20;;;;;;;11.53;6.30;;;12.40;79.20;;;;;;6283138;28;20478;-60
2021/03/29 08:25:29;;;;;;;6.00;4.97;;;12.60;79.40;;;;;;6277195;28;20473;-61
2021/03/29 08:29:04;;;;;;;5.47;4.90;;;13.00;78.10;;;;;;6288577;28;20482;-61
2021/03/29 08:32:16;;;;;;;6.97;5.83;;;13.40;76.20;;;;;;6278013;28;20964;-60
2021/03/29 08:35:21;;;;;;;10.20;6.07;;;13.90;74.70;;;;;;6301558;28;20599;-60
2021/03/29 08:38:24;;;;;;;7.40;5.20;;;14.50;72.90;;;;;;6282385;28;20504;-63
2021/03/29 08:41:26;;;;;;;12.00;5.30;;;15.30;69.60;;;;;;6275864;28;20478;-61
2021/03/29 08:44:29;;;;;;;8.70;4.40;;;15.70;63.70;;;;;;6276470;28;20848;-61
2021/03/29 08:47:31;;;;;;;7.63;4.70;;;15.80;61.40;;;;;;6299640;28;20520;-61
2021/03/29 08:50:35;;;;;;;10.87;5.50;;;15.60;60.40;;;;;;6292430;28;20473;-62
2021/03/29 08:53:39;;;;;;;7.70;5.07;;;15.70;60.20;;;;;;6301084;28;20469;-60
2021/03/29 08:56:42;;;;;;;7.40;5.17;;;15.60;59.40;;;;;;6301037;28;20466;-61
2021/03/29 08:59:45;;;;;;;5.57;5.00;;;15.60;58.80;;;;;;6301069;28;20486;-61
2021/03/29 09:02:48;;;;;;;7.07;4.57;;;15.50;57.70;;;;;;6292171;28;20960;-60
2021/03/29 09:05:50;;;;;;;13.80;5.53;;;15.50;58.00;;;;;;6279392;28;20459;-60
2021/03/29 09:08:53;;;;;;;9.17;6.90;;;15.80;57.90;;;;;;6279810;28;20793;-59
2021/03/29 09:11:56;;;;;;;12.83;8.03;;;16.40;59.30;;;;;;6283808;28;20511;-59
2021/03/29 09:14:59;;;;;;;13.20;9.33;;;17.40;58.30;;;;;;6281448;28;20988;-61
2021/03/29 09:18:04;;;;;;;17.27;9.23;;;18.10;58.10;;;;;;6288011;28;20480;-60
2021/03/29 09:21:06;;;;;;;16.80;10.00;;;18.30;58.10;;;;;;6275812;28;20527;-60
2021/03/29 09:24:19;;;;;;;18.13;11.00;;;18.40;58.20;;;;;;6275613;28;20465;-60
2021/03/29 09:27:28;;;;;;;12.60;9.93;;;19.10;56.50;;;;;;6292847;28;20249;-60
2021/03/29 09:30:31;;;;;;;16.03;11.50;;;19.90;53.80;;;;;;6278068;28;20228;-60
2021/03/29 09:33:33;;;;;;;13.47;9.90;;;21.50;51.50;;;;;;6273908;28;20231;-62
2021/03/29 09:36:36;;;;;;;23.53;12.30;;;24.50;47.20;;;;;;6280878;28;20245;-62
2021/03/29 09:39:39;;;;;;;14.37;11.73;;;26.30;40.70;;;;;;6299867;28;20648;-62
2021/03/29 09:42:43;;;;;;;12.50;10.37;;;27.60;37.10;;;;;;6275348;28;20239;-64
2021/03/29 09:45:46;;;;;;;18.10;12.17;;;29.40;34.10;;;;;;6274890;28;20223;-61
2021/03/29 09:48:48;;;;;;;13.70;9.53;;;31.60;29.70;;;;;;6275103;28;20252;-62
2021/03/29 09:52:01;;;;;;;17.75;11.48;;;33.00;27.20;;;;;;6269795;28;20245;-62
2021/03/29 09:55:06;;;;;;;13.93;10.52;;;35.10;25.70;;;;;;6274559;28;20231;-67
2021/03/29 09:58:18;;;;;;;13.70;10.80;;;36.30;23.80;;;;;;6273965;28;20261;-61
2021/03/29 10:01:22;;;;;;;11.85;9.45;;;38.20;22.00;;;;;;6274679;28;20231;-60
2021/03/29 10:04:25;;;;;;;14.68;9.35;;;39.30;21.00;;;;;;6295400;28;20223;-60
2021/03/29 10:07:27;;;;;;;12.85;9.05;;;40.50;19.50;;;;;;6282117;28;20588;-60
2021/03/29 10:10:31;;;;;;;9.68;8.68;;;40.90;18.70;;;;;;6274358;28;20235;-60
2021/03/29 10:13:36;;;;;;;11.88;8.07;;;40.80;18.40;;;;;;6274544;28;20692;-60
2021/03/29 10:16:45;;;;;;;4.50;4.10;;;39.40;18.50;;;;;;6274417;28;20234;-61
2021/03/29 10:19:48;;;;;;;7.63;4.53;;;38.60;18.20;;;;;;6274074;28;20235;-61
2021/03/29 10:22:50;;;;;;;4.63;4.22;;;37.50;18.40;;;;;;6273747;28;20593;-61
2021/03/29 10:26:12;;;;;;;10.10;5.72;;;36.00;18.60;;;;;;6273636;28;20254;-61
2021/03/29 10:29:17;;;;;;;6.93;5.78;;;34.00;20.00;;;;;;6273369;28;20247;-61
2021/03/29 10:32:21;;;;;;;5.60;5.03;;;31.70;21.30;;;;;;6274344;28;20246;-61
2021/03/29 10:35:25;;;;;;;4.97;4.50;;;29.90;22.90;;;;;;6298668;28;20244;-62
2021/03/29 10:38:27;;;;;;;9.10;6.43;;;28.80;23.60;;;;;;6277314;28;20235;-59
2021/03/29 10:41:30;;;;;;;6.80;6.10;;;27.70;24.80;;;;;;6273365;28;20226;-59
2021/03/29 10:44:33;;;;;;;16.23;7.23;;;26.50;26.60;;;;;;6273603;28;20252;-61
2021/03/29 10:47:35;;;;;;;8.10;6.20;;;25.30;28.10;;;;;;6273496;28;20234;-59
2021/03/29 10:50:37;;;;;;;7.23;4.80;;;24.90;28.80;;;;;;6273671;28;20235;-60
2021/03/29 10:53:40;;;;;;;5.70;4.40;;;24.30;28.00;;;;;;6272836;28;20239;-59
2021/03/29 10:56:43;;;;;;;4.47;3.90;;;24.00;28.20;;;;;;6266742;28;20249;-60
2021/03/29 10:59:45;;;;;;;10.83;4.20;;;23.90;28.20;;;;;;6271089;28;20235;-59
2021/03/29 11:02:47;;;;;;;4.13;3.03;;;23.20;27.80;;;;;;6271078;28;20235;-60
2021/03/29 11:05:49;;;;;;;4.40;3.33;;;23.10;27.20;;;;;;6271001;28;20227;-60
2021/03/29 11:08:52;;;;;;;3.43;2.70;;;23.10;26.70;;;;;;6272689;28;20223;-63
2021/03/29 11:11:56;;;;;;;2.90;2.20;;;22.80;25.90;;;;;;6278080;28;20235;-60
2021/03/29 11:14:58;;;;;;;2.57;2.37;;;22.40;24.50;;;;;;6278093;28;20235;-62
2021/03/29 11:18:02;;;;;;;5.20;2.90;;;22.40;25.80;;;;;;6277639;28;20511;-59
2021/03/29 11:21:04;;;;;;;3.50;3.20;;;22.60;27.30;;;;;;6277791;28;20208;-60
2021/03/29 11:24:07;;;;;;;6.07;3.00;;;22.30;27.70;;;;;;6275544;28;20200;-59
2021/03/29 11:27:10;;;;;;;4.50;2.90;;;22.30;28.20;;;;;;6277428;28;20211;-58
2021/03/29 11:30:14;;;;;;;6.70;3.17;;;22.30;27.40;;;;;;6277734;28;20200;-58
2021/03/29 11:33:16;;;;;;;6.03;3.30;;;22.10;27.10;;;;;;6285874;28;20304;-59
2021/03/29 11:36:18;;;;;;;5.00;2.97;;;22.00;27.70;;;;;;6302229;28;20664;-59
2021/03/29 11:39:21;;;;;;;3.90;3.40;;;21.90;27.50;;;;;;6302213;28;20253;-59
2021/03/29 11:42:24;;;;;;;3.80;3.20;;;21.90;27.80;;;;;;6278585;28;20230;-59
2021/03/29 11:45:28;;;;;;;3.93;2.90;;;21.80;27.30;;;;;;6277115;28;20353;-59
2021/03/29 11:48:30;;;;;;;3.83;3.40;;;21.70;27.30;;;;;;6278131;28;20224;-61
2021/03/29 11:51:32;;;;;;;6.17;2.67;;;21.80;27.00;;;;;;6277759;28;20242;-61
2021/03/29 11:54:35;;;;;;;3.53;2.17;;;22.00;26.60;;;;;;6277819;28;20238;-61
2021/03/29 11:57:40;;;;;;;3.43;2.30;;;22.10;25.70;;;;;;6277723;28;20228;-58
2021/03/29 12:00:53;;;;;;;4.27;2.67;;;22.20;26.10;;;;;;6268493;28;20246;-59
2021/03/29 12:04:00;;;;;;;6.63;3.60;;;22.00;25.40;;;;;;6277419;28;20236;-59
2021/03/29 12:07:12;;;;;;;2.93;2.00;;;21.90;25.90;;;;;;6277447;28;20232;-58
2021/03/29 12:13:42;;;;;;;3.17;2.43;;;22.00;26.10;;;;;;6260972;28;20334;-60
2021/03/29 12:16:47;;;;;;;5.07;3.17;;;22.20;25.60;;;;;;6292980;28;20688;-60
2021/03/29 12:19:49;;;;;;;3.83;2.90;;;22.10;25.60;;;;;;6300892;28;20231;-63
2021/03/29 12:22:52;;;;;;;3.53;3.10;;;22.20;25.50;;;;;;6301525;28;20231;-60
2021/03/29 12:25:56;;;;;;;3.30;2.57;;;21.90;26.00;;;;;;6279612;28;20549;-60
2021/03/29 12:29:00;;;;;;;5.30;3.07;;;22.00;26.30;;;;;;6276271;28;20231;-60
2021/03/29 12:32:04;;;;;;;4.27;2.87;;;22.20;26.30;;;;;;6285580;28;20577;-61
2021/03/29 12:35:11;;;;;;;3.70;2.80;;;22.30;26.20;;;;;;6276802;28;20227;-59
2021/03/29 12:38:13;;;;;;;4.53;3.10;;;22.50;26.40;;;;;;6276641;28;20314;-60
2021/03/29 12:41:17;;;;;;;6.27;2.90;;;22.60;26.10;;;;;;6276384;28;20580;-60
2021/03/29 12:44:21;;;;;;;3.90;2.70;;;22.70;26.10;;;;;;6276309;28;20247;-60
2021/03/29 12:47:28;;;;;;;5.47;3.03;;;22.90;25.80;;;;;;6279061;28;20223;-60
2021/03/29 12:50:31;;;;;;;5.13;3.13;;;22.90;25.90;;;;;;6288191;28;20219;-59
2021/03/29 12:53:35;;;;;;;4.43;2.83;;;23.00;25.80;;;;;;6285853;28;20234;-60
2021/03/29 12:56:38;;;;;;;4.93;2.60;;;22.90;25.80;;;;;;6300830;28;20230;-63
2021/03/29 12:59:41;;;;;;;8.70;2.50;;;23.10;26.00;;;;;;6301118;28;20238;-60
2021/03/29 13:02:45;;;;;;;4.80;2.50;;;23.20;25.70;;;;;;6300468;28;20672;-61
2021/03/29 13:05:53;;;;;;;3.77;2.80;;;23.20;25.50;;;;;;6271828;28;20241;-61
2021/03/29 13:09:02;;;;;;;6.23;2.97;;;23.00;25.50;;;;;;6275638;28;20315;-61
2021/03/29 13:12:08;;;;;;;6.67;2.47;;;22.80;25.80;;;;;;6275804;28;20269;-61
2021/03/29 13:15:13;;;;;;;3.10;2.70;;;22.70;25.90;;;;;;6275604;28;20188;-61
2021/03/29 13:18:18;;;;;;;4.30;2.60;;;22.70;26.00;;;;;;6275606;28;20193;-61
2021/03/29 13:21:22;;;;;;;7.17;3.17;;;22.70;26.10;;;;;;6275757;28;20630;-61
2021/03/29 13:24:24;;;;;;;6.53;2.40;;;22.70;26.10;;;;;;6284772;28;20234;-61
2021/03/29 13:27:26;;;;;;;3.13;2.50;;;22.60;25.90;;;;;;6300229;28;20230;-61
2021/03/29 13:30:32;;;;;;;3.23;2.33;;;22.60;26.00;;;;;;6300490;28;20222;-61
2021/03/29 13:33:34;;;;;;;3.17;2.50;;;22.40;26.10;;;;;;6275280;28;20696;-61
2021/03/29 13:36:37;;;;;;;2.93;2.60;;;22.50;26.30;;;;;;6281255;28;20231;-62
2021/03/29 13:39:39;;;;;;;3.20;2.50;;;22.50;26.20;;;;;;6299685;28;20684;-61
2021/03/29 13:42:43;;;;;;;4.70;2.27;;;22.50;25.90;;;;;;6299863;28;20235;-61
2021/03/29 13:45:46;;;;;;;5.40;2.80;;;22.30;25.90;;;;;;6300023;28;20309;-61
2021/03/29 13:48:52;;;;;;;4.13;2.77;;;22.10;26.10;;;;;;6300598;28;20223;-60
2021/03/29 13:51:55;;;;;;;4.53;3.13;;;22.20;26.30;;;;;;6300133;28;20249;-61
2021/03/29 13:54:58;;;;;;;3.80;2.40;;;22.20;26.10;;;;;;6300014;28;20307;-61
2021/03/29 13:58:00;;;;;;;5.70;2.63;;;22.20;25.90;;;;;;6300220;28;20311;-61
2021/03/29 14:01:04;;;;;;;5.60;2.60;;;22.00;26.10;;;;;;6299570;28;20598;-61
2021/03/29 14:04:12;;;;;;;2.50;2.30;;;21.90;26.00;;;;;;6299393;28;20719;-60
2021/03/29 14:07:14;;;;;;;3.77;2.30;;;21.80;26.00;;;;;;6299847;28;20237;-60
2021/03/29 14:10:18;;;;;;;3.77;2.90;;;21.80;26.20;;;;;;6295697;28;20222;-60
2021/03/29 14:13:20;;;;;;;2.80;2.43;;;21.80;26.30;;;;;;6299476;28;20245;-60
2021/03/29 14:16:26;;;;;;;3.53;2.47;;;21.80;26.40;;;;;;6299359;28;20289;-61
2021/03/29 14:19:28;;;;;;;5.90;2.40;;;21.80;26.00;;;;;;6299530;28;20242;-60
2021/03/29 14:22:31;;;;;;;4.60;2.90;;;21.80;26.00;;;;;;6299367;28;20246;-60
2021/03/29 14:25:33;;;;;;;3.37;3.07;;;21.70;26.30;;;;;;6299129;28;20227;-60
2021/03/29 14:28:35;;;;;;;5.30;2.60;;;21.70;26.20;;;;;;6299160;28;20287;-61
2021/03/29 14:31:39;;;;;;;5.83;2.27;;;21.50;26.40;;;;;;6287187;28;20677;-60
2021/03/29 14:34:47;;;;;;;3.13;2.30;;;21.30;29.30;;;;;;6285276;28;20222;-61
2021/03/29 14:44:38;;;;;;;4.27;2.63;;;20.90;27.50;;;;;;6252310;28;20231;-61
2021/03/29 14:47:44;;;;;;;4.60;2.87;;;20.90;27.60;;;;;;6279203;28;20231;-60
2021/03/29 14:50:47;;;;;;;4.23;3.77;;;20.90;27.40;;;;;;6278890;28;20269;-61
2021/03/29 14:53:49;;;;;;;4.53;2.53;;;21.00;27.80;;;;;;6278903;28;20231;-61
2021/03/29 14:56:51;;;;;;;3.73;2.53;;;21.00;27.80;;;;;;6278985;28;20231;-60
2021/03/29 14:59:53;;;;;;;4.00;3.23;;;21.00;28.40;;;;;;6279050;28;20223;-60
2021/03/29 15:02:59;;;;;;;4.53;2.57;;;20.90;28.40;;;;;;6278634;28;20239;-61
2021/03/29 15:06:20;;;;;;;3.70;3.37;;;20.90;28.20;;;;;;6278929;28;20200;-61
2021/03/29 15:09:23;;;;;;;6.60;2.87;;;21.00;28.80;;;;;;6278852;28;20307;-61
2021/03/29 15:12:26;;;;;;;3.50;2.43;;;21.00;28.00;;;;;;6274016;28;20250;-61
2021/03/29 15:15:28;;;;;;;2.57;2.37;;;21.00;27.60;;;;;;6278507;28;20227;-60
2021/03/29 15:18:31;;;;;;;3.93;2.17;;;20.90;27.70;;;;;;6278414;28;20572;-60
2021/03/29 15:21:34;;;;;;;3.20;2.87;;;21.00;27.80;;;;;;6278325;28;20278;-60
2021/03/29 15:24:36;;;;;;;4.40;2.40;;;21.00;27.60;;;;;;6288634;28;20890;-60
2021/03/29 15:27:42;;;;;;;3.63;2.20;;;21.00;27.80;;;;;;6277597;28;20249;-60
2021/03/29 15:30:44;;;;;;;2.83;2.40;;;20.90;27.80;;;;;;6276653;28;20285;-60
2021/03/29 15:33:47;;;;;;;9.23;2.90;;;20.90;27.80;;;;;;6277494;28;20235;-61
2021/03/29 15:36:50;;;;;;;3.60;2.60;;;21.00;27.80;;;;;;6277751;28;20238;-60
2021/03/29 15:39:52;;;;;;;2.80;2.50;;;21.00;28.30;;;;;;6277333;28;20699;-60
2021/03/29 15:42:54;;;;;;;4.03;2.03;;;21.00;28.10;;;;;;6277511;28;20681;-60
2021/03/29 15:45:57;;;;;;;3.90;2.60;;;21.10;27.90;;;;;;6276509;28;20223;-60
2021/03/29 15:49:00;;;;;;;7.43;2.57;;;21.20;27.90;;;;;;6277883;28;20230;-60
2021/03/29 15:52:03;;;;;;;2.00;1.90;;;21.20;27.90;;;;;;6277836;28;20232;-60
2021/03/29 15:55:06;;;;;;;3.30;3.00;;;21.30;27.60;;;;;;6277664;28;20227;-59
2021/03/29 15:58:12;;;;;;;4.53;2.70;;;21.30;27.90;;;;;;6295679;28;20242;-59
2021/03/29 16:01:15;;;;;;;3.13;2.13;;;21.20;28.00;;;;;;6302440;28;20231;-60
2021/03/29 16:04:18;;;;;;;4.80;3.00;;;21.10;27.90;;;;;;6285075;28;20231;-60
2021/03/29 16:07:41;;;;;;;4.20;2.40;;;21.00;28.20;;;;;;6290373;28;20224;-60
2021/03/29 16:10:43;;;;;;;3.90;2.67;;;20.70;28.60;;;;;;6300688;28;20554;-60